Time;durP1;ratioP1;P1;durP2;ratioP2;P2;SDS_P1;SDS_P2;PMS_P1;PMS_P2;Temp;Humidity;BMP_temperature;BMP_pressure;BME280_temperature;BME280_humidity;BME280_pressure;Samples;Min_cycle;Max_cycle;Signal;HPM_P1;HPM_P2
2023/05/06 00:00:32;;;;;;;6.47;5.23;;;;;;;14.82;67.15;97046.28;5046508;28;20668;-69
2023/05/06 00:03:00;;;;;;;6.70;5.30;;;;;;;14.92;66.66;97059.59;5044249;28;20193;-70
2023/05/06 00:05:27;;;;;;;6.57;5.27;;;;;;;14.71;66.60;97020.06;5046867;28;20188;-71
2023/05/06 00:07:54;;;;;;;6.93;5.83;;;;;;;14.86;67.16;97042.53;5045498;28;20283;-70
2023/05/06 00:10:21;;;;;;;6.67;5.50;;;;;;;14.93;66.86;97056.03;5046602;28;20199;-69
2023/05/06 00:12:48;;;;;;;6.50;5.27;;;;;;;14.89;67.52;97067.59;5045944;28;20252;-71
2023/05/06 00:15:15;;;;;;;9.23;5.93;;;;;;;14.93;67.24;97053.44;5045976;28;20210;-71
2023/05/06 00:17:42;;;;;;;6.23;5.17;;;;;;;14.94;67.60;97055.94;5046666;28;20613;-71
2023/05/06 00:20:10;;;;;;;8.23;6.10;;;;;;;14.66;68.53;97062.03;5045628;28;20227;-72
2023/05/06 00:22:37;;;;;;;6.57;5.20;;;;;;;14.59;68.44;97065.94;5046663;28;20198;-72
2023/05/06 00:25:04;;;;;;;6.30;5.00;;;;;;;14.26;69.61;97044.50;5046123;28;20744;-73
2023/05/06 00:27:32;;;;;;;8.20;6.37;;;;;;;14.46;69.58;97048.56;5047404;28;20308;-73
2023/05/06 00:29:59;;;;;;;10.53;6.93;;;;;;;14.44;69.30;97024.34;5048456;28;20633;-72
2023/05/06 00:32:27;;;;;;;7.93;5.50;;;;;;;14.52;69.15;97045.56;5048608;28;20182;-72
2023/05/06 00:34:54;;;;;;;6.70;5.50;;;;;;;14.50;69.35;97039.63;5050155;28;20255;-72
2023/05/06 00:37:21;;;;;;;7.97;4.93;;;;;;;14.52;69.15;97029.94;5047602;28;20229;-72
2023/05/06 00:39:48;;;;;;;9.73;6.10;;;;;;;14.64;68.86;97032.63;5032319;28;20217;-70
2023/05/06 00:42:15;;;;;;;7.37;6.20;;;;;;;14.83;68.42;97042.75;5049271;28;20207;-70
2023/05/06 00:44:42;;;;;;;6.90;5.43;;;;;;;14.51;69.56;97042.13;5050065;28;20217;-70
2023/05/06 00:47:09;;;;;;;8.67;6.37;;;;;;;14.52;69.04;97028.16;5031104;28;20577;-72
2023/05/06 00:49:36;;;;;;;6.77;5.47;;;;;;;14.44;70.13;97043.44;5049464;28;20674;-74
2023/05/06 00:52:04;;;;;;;10.90;6.57;;;;;;;14.53;69.99;97035.03;5048277;28;20188;-71
2023/05/06 00:54:31;;;;;;;6.83;5.67;;;;;;;14.69;68.74;97034.94;5047583;28;20229;-70
2023/05/06 00:56:58;;;;;;;8.77;5.90;;;;;;;14.58;68.43;97012.16;5048367;28;20715;-70
2023/05/06 00:59:26;;;;;;;8.73;5.70;;;;;;;14.57;69.36;97033.91;5047078;28;20244;-70
2023/05/06 01:01:53;;;;;;;11.03;5.60;;;;;;;14.63;69.17;97023.13;5048305;28;20587;-70
2023/05/06 01:04:24;;;;;;;11.03;5.50;;;;;;;14.65;68.65;97018.66;5047353;28;20192;-70
2023/05/06 01:06:54;;;;;;;9.83;5.73;;;;;;;14.75;68.43;97025.91;5047849;28;20296;-70
2023/05/06 01:09:38;;;;;;;6.57;5.17;;;;;;;14.76;68.25;97017.13;5049328;28;20178;-70
2023/05/06 01:12:13;;;;;;;9.43;5.57;;;;;;;14.75;68.72;97024.13;5048331;28;20625;-71
2023/05/06 01:14:56;;;;;;;7.77;5.20;;;;;;;14.84;68.17;97022.72;5049638;28;20246;-70
2023/05/06 01:17:29;;;;;;;9.00;5.20;;;;;;;14.78;68.21;97010.06;5048650;28;20257;-69
2023/05/06 01:20:00;;;;;;;9.93;5.50;;;;;;;14.81;68.65;97012.47;5048815;28;20269;-71
2023/05/06 01:22:30;;;;;;;7.17;5.83;;;;;;;14.82;68.04;97016.78;5049049;28;20287;-72
2023/05/06 01:24:57;;;;;;;9.43;5.40;;;;;;;14.83;68.02;97021.88;5046822;28;20263;-72
2023/05/06 01:27:24;;;;;;;7.60;5.23;;;;;;;14.76;68.02;97023.19;5049013;28;20226;-71
2023/05/06 01:29:53;;;;;;;6.43;5.73;;;;;;;14.72;68.09;97019.09;5048100;28;20256;-71
2023/05/06 01:32:45;;;;;;;8.47;5.50;;;;;;;14.55;68.71;97016.69;5047734;28;20202;-72
2023/05/06 01:35:27;;;;;;;9.93;6.20;;;;;;;14.66;68.48;97022.09;5047330;28;20196;-70
2023/05/06 01:38:13;;;;;;;8.90;6.10;;;;;;;14.71;68.58;97016.59;5047079;28;20780;-71
2023/05/06 01:40:43;;;;;;;11.47;7.37;;;;;;;14.72;68.10;97008.69;5047456;28;20649;-70
2023/05/06 01:43:12;;;;;;;7.17;5.20;;;;;;;14.78;67.74;97015.28;5046858;28;20177;-70
2023/05/06 01:45:41;;;;;;;7.63;5.53;;;;;;;14.83;67.54;97005.41;5047007;28;20287;-70
2023/05/06 01:48:08;;;;;;;7.73;5.27;;;;;;;14.85;67.06;97003.53;5048376;28;20654;-73
2023/05/06 01:50:36;;;;;;;6.70;5.47;;;;;;;14.92;66.87;97010.03;5046496;28;20267;-71
2023/05/06 01:53:03;;;;;;;6.10;4.53;;;;;;;14.77;67.36;97018.81;5048628;28;20232;-71
2023/05/06 01:55:31;;;;;;;9.00;5.57;;;;;;;14.78;67.04;97002.22;5046152;28;20228;-71
2023/05/06 01:57:58;;;;;;;9.03;6.60;;;;;;;14.97;66.96;97023.63;5048376;28;20214;-71
2023/05/06 02:00:25;;;;;;;10.00;6.50;;;;;;;14.91;67.36;97018.78;5046328;28;20197;-71
2023/05/06 02:02:52;;;;;;;5.87;5.20;;;;;;;14.80;67.41;97031.66;5048301;28;20197;-72
2023/05/06 02:05:20;;;;;;;6.63;5.27;;;;;;;14.83;67.26;97021.88;5048147;28;20746;-70
2023/05/06 02:07:51;;;;;;;5.03;4.30;;;;;;;13.98;67.51;96905.63;5029652;28;20704;-72
2023/05/06 02:10:19;;;;;;;9.67;5.97;;;;;;;14.84;66.77;97018.34;5047289;28;20220;-70
2023/05/06 02:12:54;;;;;;;7.23;4.93;;;;;;;14.77;67.12;96997.97;5029284;28;20215;-71
2023/05/06 02:15:23;;;;;;;7.17;4.77;;;;;;;14.92;66.92;97000.44;5046651;28;20653;-71
2023/05/06 02:17:51;;;;;;;7.00;4.90;;;;;;;14.78;67.58;97017.88;5046010;28;20251;-70
2023/05/06 02:20:18;;;;;;;6.33;4.97;;;;;;;14.82;66.49;97008.97;5046202;28;20662;-70
2023/05/06 02:22:45;;;;;;;6.57;5.23;;;;;;;14.97;66.79;97007.97;5047878;28;20181;-69
2023/05/06 02:25:12;;;;;;;8.00;5.23;;;;;;;14.99;66.30;97006.09;5047005;28;20216;-70
2023/05/06 02:27:39;;;;;;;7.17;5.40;;;;;;;15.09;64.57;96994.97;5030086;28;20231;-69
2023/05/06 02:30:07;;;;;;;7.43;5.00;;;;;;;15.14;64.28;97020.78;5045536;28;20192;-69
2023/05/06 02:32:34;;;;;;;7.33;4.53;;;;;;;15.23;63.70;97028.84;5046446;28;20627;-70
2023/05/06 02:35:02;;;;;;;7.53;4.93;;;;;;;15.34;63.90;97022.94;5045889;28;20178;-70
2023/05/06 02:37:29;;;;;;;7.33;4.80;;;;;;;15.22;63.83;97008.06;5047520;28;20222;-72
2023/05/06 02:39:56;;;;;;;5.00;4.23;;;;;;;15.19;65.33;97003.03;5047830;28;20269;-71
2023/05/06 02:42:23;;;;;;;5.57;4.37;;;;;;;15.32;64.49;97014.38;5047022;28;20182;-70
2023/05/06 02:44:51;;;;;;;7.17;4.97;;;;;;;15.28;64.78;97008.53;5047770;28;20602;-70
2023/05/06 02:47:18;;;;;;;10.83;5.10;;;;;;;15.17;65.33;97010.97;5046599;28;20182;-71
2023/05/06 02:49:45;;;;;;;8.93;5.30;;;;;;;15.22;65.02;96989.81;5028912;28;20198;-72
2023/05/06 02:52:12;;;;;;;9.00;5.00;;;;;;;15.18;65.34;97023.09;5025822;28;20223;-70
2023/05/06 02:54:39;;;;;;;8.03;5.50;;;;;;;15.12;65.36;97014.81;5031436;28;20202;-70
2023/05/06 02:57:06;;;;;;;6.20;4.83;;;;;;;15.22;65.46;97029.78;5045816;28;20226;-70
2023/05/06 02:59:34;;;;;;;6.43;4.60;;;;;;;15.24;64.82;97014.03;5045174;28;20273;-70
2023/05/06 03:02:02;;;;;;;8.13;5.63;;;;;;;15.32;63.60;97020.44;5045847;28;20650;-70
2023/05/06 03:04:29;;;;;;;8.07;5.00;;;;;;;15.39;63.11;97036.53;5028261;28;20194;-70
2023/05/06 03:06:56;;;;;;;5.80;4.83;;;;;;;15.30;64.40;97011.88;5045989;28;20216;-69
2023/05/06 03:09:23;;;;;;;7.37;5.23;;;;;;;15.44;63.87;97024.03;5028486;28;20289;-72
2023/05/06 03:11:51;;;;;;;9.27;5.20;;;;;;;15.48;64.01;97022.09;5045549;28;20622;-71
2023/05/06 03:14:19;;;;;;;5.77;4.50;;;;;;;15.20;64.75;97025.59;5045380;28;20185;-71
2023/05/06 03:16:46;;;;;;;7.37;5.23;;;;;;;15.00;66.07;97007.78;5046247;28;20193;-71
2023/05/06 03:19:13;;;;;;;6.43;5.30;;;;;;;15.20;65.86;97009.94;5045476;28;20262;-71
2023/05/06 03:21:43;;;;;;;5.73;5.07;;;;;;;15.03;65.57;96992.78;5044480;28;20182;-72
2023/05/06 03:24:10;;;;;;;13.23;6.27;;;;;;;15.19;65.46;97016.09;5047005;28;20278;-71
2023/05/06 03:26:37;;;;;;;6.60;5.27;;;;;;;15.27;65.11;97016.44;5044763;28;20186;-71
2023/05/06 03:29:05;;;;;;;7.77;5.50;;;;;;;15.37;65.00;97022.75;5045169;28;20263;-72
2023/05/06 03:31:33;;;;;;;7.20;5.60;;;;;;;15.41;65.02;97022.41;5028596;28;20194;-71
2023/05/06 03:34:02;;;;;;;7.90;5.43;;;;;;;15.58;64.69;97021.34;5044785;28;20177;-72
2023/05/06 03:36:30;;;;;;;8.80;5.80;;;;;;;15.39;65.09;97021.69;5045412;28;20225;-73
2023/05/06 03:38:57;;;;;;;8.00;5.93;;;;;;;15.55;65.05;97029.41;5044551;28;20918;-70
2023/05/06 03:41:24;;;;;;;7.40;6.23;;;;;;;15.75;64.56;97035.91;5045492;28;20194;-69
2023/05/06 03:43:54;;;;;;;8.03;6.10;;;;;;;15.73;64.58;97043.84;5044488;28;20186;-71
2023/05/06 03:46:24;;;;;;;9.33;5.97;;;;;;;16.07;63.69;97039.84;5045167;28;20587;-69
2023/05/06 03:48:52;;;;;;;6.47;5.73;;;;;;;16.19;61.28;97029.38;5044956;28;20269;-69
2023/05/06 03:51:19;;;;;;;7.60;5.17;;;;;;;16.25;62.60;97054.25;5044659;28;20186;-70
2023/05/06 03:53:47;;;;;;;7.50;5.27;;;;;;;16.33;62.66;97059.78;5046601;28;20205;-69
2023/05/06 03:56:16;;;;;;;7.47;5.53;;;;;;;16.23;62.97;97056.13;5045619;28;20197;-69
2023/05/06 03:58:47;;;;;;;7.60;5.70;;;;;;;16.41;62.20;97057.50;5045363;28;20267;-69
2023/05/06 04:01:16;;;;;;;8.27;6.23;;;;;;;16.41;62.69;97059.25;5029222;28;20193;-70
2023/05/06 04:03:43;;;;;;;7.47;5.63;;;;;;;16.59;61.75;97064.09;5050406;28;20193;-73
2023/05/06 04:06:11;;;;;;;9.77;6.13;;;;;;;16.01;63.54;97058.53;5032386;28;20280;-69
2023/05/06 04:08:38;;;;;;;8.43;5.57;;;;;;;15.94;62.82;97055.50;5049920;28;20185;-72
2023/05/06 04:11:06;;;;;;;6.73;5.20;;;;;;;15.72;63.11;97064.84;5049208;28;20285;-69
2023/05/06 04:13:35;;;;;;;6.23;5.63;;;;;;;15.50;64.62;97054.94;5048195;28;20723;-69
2023/05/06 04:16:06;;;;;;;7.27;5.07;;;;;;;15.48;65.03;97051.59;5049420;28;20190;-69
2023/05/06 04:18:38;;;;;;;8.33;5.80;;;;;;;15.57;64.20;97061.47;5048301;28;20214;-69
2023/05/06 04:21:10;;;;;;;7.97;6.10;;;;;;;15.53;64.63;97054.78;5048751;28;20194;-70
2023/05/06 04:23:40;;;;;;;11.33;6.30;;;;;;;15.60;64.21;97063.03;5032158;28;20190;-70
2023/05/06 04:26:10;;;;;;;6.97;5.93;;;;;;;15.58;64.38;97055.28;5048105;28;20190;-71
2023/05/06 04:28:40;;;;;;;10.13;5.97;;;;;;;15.56;64.78;97064.19;5048767;28;20717;-71
2023/05/06 04:31:09;;;;;;;8.37;6.37;;;;;;;15.68;65.45;97082.50;5031226;28;20202;-71
2023/05/06 04:33:41;;;;;;;7.00;5.17;;;;;;;15.59;64.88;97048.31;5048565;28;20182;-70
2023/05/06 04:36:13;;;;;;;7.93;5.80;;;;;;;15.69;64.89;97075.47;5032597;28;20194;-70
2023/05/06 04:38:52;;;;;;;7.23;5.90;;;;;;;15.71;65.11;97082.28;5047790;28;20220;-69
2023/05/06 04:41:21;;;;;;;10.40;6.17;;;;;;;15.52;65.69;97066.13;5032216;28;20684;-70
2023/05/06 04:43:48;;;;;;;6.90;5.07;;;;;;;15.70;64.42;97067.56;5047660;28;20215;-70
2023/05/06 04:46:20;;;;;;;8.13;4.97;;;;;;;15.95;62.53;97059.75;5031935;28;20281;-71
2023/05/06 04:48:53;;;;;;;8.03;5.70;;;;;;;16.07;61.77;97066.78;5047649;28;20669;-71
2023/05/06 04:51:20;;;;;;;8.17;5.50;;;;;;;16.29;62.47;97077.47;5049676;28;20269;-70
2023/05/06 04:53:48;;;;;;;9.50;5.60;;;;;;;16.45;61.84;97071.19;5051899;28;20573;-70
2023/05/06 04:56:16;;;;;;;7.50;5.50;;;;;;;16.66;61.88;97067.13;5053229;28;20232;-72
2023/05/06 04:58:46;;;;;;;7.70;6.13;;;;;;;17.25;60.75;97074.19;5052285;28;20210;-73
2023/05/06 05:01:14;;;;;;;7.67;5.90;;;;;;;17.50;58.70;97083.78;5048243;28;20194;-72
2023/05/06 05:03:44;;;;;;;9.50;5.47;;;;;;;17.49;57.38;97089.94;5032883;28;20293;-72
2023/05/06 05:06:12;;;;;;;8.67;5.63;;;;;;;17.61;58.61;97071.59;5047394;28;20204;-70
2023/05/06 05:08:41;;;;;;;7.43;5.60;;;;;;;17.20;59.39;97051.94;5047686;28;20234;-71
2023/05/06 05:11:12;;;;;;;8.40;4.57;;;;;;;17.78;56.27;97076.41;5045697;28;20245;-72
2023/05/06 05:13:40;;;;;;;7.47;4.20;;;;;;;18.01;54.50;97076.50;5036256;28;20679;-69
2023/05/06 05:16:08;;;;;;;6.63;4.30;;;;;;;18.10;54.59;97062.69;5011641;28;20255;-71
2023/05/06 05:18:42;;;;;;;7.40;4.07;;;;;;;18.04;53.93;97082.34;5034021;28;20325;-74
2023/05/06 05:21:17;;;;;;;7.10;4.30;;;;;;;18.25;53.69;97080.75;5027753;28;20688;-74
2023/05/06 05:23:54;;;;;;;4.87;4.37;;;;;;;18.44;53.47;97082.84;5043599;28;20190;-72
2023/05/06 05:26:29;;;;;;;6.30;4.03;;;;;;;18.29;53.25;97074.31;5011035;28;20204;-78
2023/05/06 05:29:01;;;;;;;7.80;5.60;;;;;;;18.44;55.13;97073.16;5058788;28;20611;-70
2023/05/06 05:31:34;;;;;;;5.13;4.47;;;;;;;18.48;54.36;97079.03;5027977;28;20245;-72
2023/05/06 05:34:01;;;;;;;6.00;5.23;;;;;;;18.79;53.66;97067.00;5047261;28;20576;-70
2023/05/06 05:36:34;;;;;;;5.70;4.50;;;;;;;18.45;52.70;97074.00;5046418;28;20198;-73
2023/05/06 05:39:05;;;;;;;6.00;4.33;;;;;;;18.76;52.89;97075.94;5030107;28;20543;-70
2023/05/06 05:41:39;;;;;;;8.77;6.07;;;;;;;19.04;54.08;97080.69;5029973;28;20665;-69
2023/05/06 05:44:06;;;;;;;9.43;5.00;;;;;;;19.13;53.78;97076.50;5030099;28;20292;-75
2023/05/06 05:46:35;;;;;;;5.90;4.83;;;;;;;19.75;52.28;97084.63;5047221;28;20617;-69
2023/05/06 05:49:05;;;;;;;11.20;4.97;;;;;;;20.20;50.06;97086.09;5029816;28;20189;-73
2023/05/06 05:51:34;;;;;;;4.57;4.10;;;;;;;19.80;49.59;97090.34;5047148;28;20233;-73
2023/05/06 05:54:05;;;;;;;6.83;3.83;;;;;;;19.51;49.38;97062.97;5044555;28;20231;-71
2023/05/06 05:56:33;;;;;;;6.67;3.77;;;;;;;18.84;51.41;97086.66;5066647;28;20207;-70
2023/05/06 05:59:00;;;;;;;7.40;4.47;;;;;;;19.57;50.50;97091.38;5066601;28;20217;-71
2023/05/06 06:01:28;;;;;;;7.63;5.73;;;;;;;20.06;49.21;97091.66;5049674;28;20197;-72
2023/05/06 06:03:58;;;;;;;5.67;4.60;;;;;;;20.23;49.00;97085.88;5083636;28;20304;-72
2023/05/06 06:06:26;;;;;;;9.27;3.17;;;;;;;20.14;48.39;97083.97;5067406;28;20188;-70
2023/05/06 06:08:54;;;;;;;7.50;4.30;;;;;;;20.56;47.65;97090.09;5100650;28;20656;-70
2023/05/06 06:11:24;;;;;;;8.37;5.13;;;;;;;20.07;47.98;97085.44;5065742;28;20203;-69
2023/05/06 06:13:51;;;;;;;6.17;4.50;;;;;;;20.11;49.29;97086.88;5049488;28;20260;-69
2023/05/06 06:16:18;;;;;;;6.27;4.20;;;;;;;20.52;48.46;97091.31;5036970;28;20205;-71
2023/05/06 06:18:45;;;;;;;8.57;4.43;;;;;;;20.72;47.53;97096.53;5034270;28;20752;-70
2023/05/06 06:21:12;;;;;;;6.67;4.77;;;;;;;20.64;47.41;97088.47;5028015;28;20249;-70
2023/05/06 06:23:40;;;;;;;6.50;4.73;;;;;;;20.17;48.11;97084.53;5026857;28;20285;-69
2023/05/06 06:26:07;;;;;;;7.10;4.33;;;;;;;19.46;49.68;97095.69;5026307;28;20205;-69
2023/05/06 06:28:38;;;;;;;8.97;4.03;;;;;;;19.53;49.19;97080.28;5041747;28;20823;-69
2023/05/06 06:31:05;;;;;;;7.70;3.50;;;;;;;19.84;48.90;97105.75;5047138;28;20230;-71
2023/05/06 06:33:32;;;;;;;6.40;3.63;;;;;;;19.05;50.14;97079.75;5046411;28;20204;-70
2023/05/06 06:36:01;;;;;;;4.80;3.90;;;;;;;18.85;50.65;97087.50;5047442;28;20189;-70
2023/05/06 06:38:29;;;;;;;6.20;4.20;;;;;;;19.15;50.67;97085.94;5033449;28;20236;-70
2023/05/06 06:40:57;;;;;;;6.30;3.97;;;;;;;19.13;50.37;97094.88;5042955;28;20196;-72
2023/05/06 06:43:25;;;;;;;5.57;4.20;;;;;;;18.92;51.27;97100.03;5050290;28;20268;-69
2023/05/06 06:45:59;;;;;;;6.50;3.50;;;;;;;18.92;50.82;97089.53;5064912;28;20195;-72
2023/05/06 06:48:31;;;;;;;5.93;3.80;;;;;;;18.98;51.62;97088.22;5067000;28;20863;-71
2023/05/06 06:50:59;;;;;;;8.57;4.90;;;;;;;18.74;51.57;97093.59;5058878;28;20193;-70
2023/05/06 06:53:26;;;;;;;6.13;3.73;;;;;;;18.67;51.22;97098.47;5044565;28;20225;-71
2023/05/06 06:55:54;;;;;;;5.70;3.70;;;;;;;18.63;52.06;97109.31;5047190;28;20634;-71
2023/05/06 06:58:21;;;;;;;5.63;3.87;;;;;;;18.68;51.44;97112.41;5028143;28;20242;-71
2023/05/06 07:00:48;;;;;;;10.27;4.10;;;;;;;18.63;51.78;97104.91;5045505;28;20189;-70
2023/05/06 07:03:18;;;;;;;7.50;3.67;;;;;;;18.80;51.89;97110.63;5044641;28;20220;-71
2023/05/06 07:05:47;;;;;;;5.83;4.17;;;;;;;18.77;52.08;97105.63;5046863;28;20248;-72
2023/05/06 07:08:15;;;;;;;4.80;3.60;;;;;;;18.86;52.32;97097.88;5046225;28;20199;-70
2023/05/06 07:10:43;;;;;;;6.10;3.50;;;;;;;18.90;51.48;97091.44;5044570;28;20193;-71
2023/05/06 07:13:21;;;;;;;8.53;3.40;;;;;;;19.20;49.93;97086.41;5046725;28;20733;-74
2023/05/06 07:15:49;;;;;;;4.93;3.70;;;;;;;19.11;50.16;97092.38;5044454;28;20196;-72
2023/05/06 07:18:16;;;;;;;4.83;4.10;;;;;;;19.29;51.20;97097.94;5045150;28;20219;-72
2023/05/06 07:20:46;;;;;;;7.87;4.57;;;;;;;19.60;50.40;97091.13;5045610;28;20198;-72
2023/05/06 07:23:13;;;;;;;10.77;6.10;;;;;;;19.96;48.80;97098.63;5044639;28;20709;-70
2023/05/06 07:25:41;;;;;;;7.50;4.13;;;;;;;19.97;48.10;97108.22;5046177;28;20352;-71
2023/05/06 07:28:09;;;;;;;6.60;3.93;;;;;;;19.23;49.98;97115.03;5044336;28;20254;-73
2023/05/06 07:30:39;;;;;;;7.37;3.83;;;;;;;19.64;49.50;97108.31;5046205;28;20201;-70
2023/05/06 07:33:06;;;;;;;6.83;4.03;;;;;;;19.77;48.93;97119.50;5044170;28;20287;-70
2023/05/06 07:35:36;;;;;;;4.37;3.20;;;;;;;19.01;49.90;97096.69;5045359;28;20204;-70
2023/05/06 07:38:04;;;;;;;7.30;3.70;;;;;;;19.18;49.69;97088.31;5045152;28;20191;-71
2023/05/06 07:40:32;;;;;;;7.30;4.00;;;;;;;19.55;50.02;97119.56;5042092;28;20201;-74
2023/05/06 07:43:00;;;;;;;5.23;3.97;;;;;;;19.79;49.33;97117.56;5057986;28;20581;-71
2023/05/06 07:45:27;;;;;;;5.63;4.70;;;;;;;20.06;48.86;97125.84;5024143;28;20254;-71
2023/05/06 07:47:55;;;;;;;8.83;3.87;;;;;;;20.30;47.78;97105.41;5008271;28;20268;-73
2023/05/06 07:50:22;;;;;;;6.57;4.00;;;;;;;20.24;47.83;97121.72;5007116;28;20204;-72
2023/05/06 07:52:49;;;;;;;5.60;3.30;;;;;;;19.92;47.74;97102.47;5026112;28;20291;-69
2023/05/06 07:55:55;;;;;;;6.00;3.30;;;;;;;20.14;47.94;97107.63;5023871;28;20186;-70
2023/05/06 07:58:22;;;;;;;5.43;3.83;;;;;;;20.35;47.93;97126.94;5032627;28;20607;-71
2023/05/06 08:00:50;;;;;;;8.00;3.93;;;;;;;20.60;47.23;97113.38;5027834;28;20217;-70
2023/05/06 08:03:20;;;;;;;7.73;3.60;;;;;;;20.88;46.46;97131.13;5029430;28;20664;-70
2023/05/06 08:05:52;;;;;;;6.87;4.53;;;;;;;20.30;47.92;97141.44;5025672;28;20579;-70
2023/05/06 08:08:20;;;;;;;4.07;3.67;;;;;;;20.46;46.91;97118.97;5025204;28;20239;-71
2023/05/06 08:10:47;;;;;;;5.50;3.27;;;;;;;20.44;46.36;97122.69;5025505;28;20187;-72
2023/05/06 08:13:16;;;;;;;4.60;2.93;;;;;;;20.32;46.07;97127.16;5025856;28;20245;-71
2023/05/06 08:15:45;;;;;;;6.93;3.50;;;;;;;20.23;47.38;97120.91;5025013;28;20708;-71
2023/05/06 08:18:13;;;;;;;5.73;3.93;;;;;;;20.63;46.95;97135.97;5024267;28;20198;-71
2023/05/06 08:20:48;;;;;;;5.77;2.80;;;;;;;20.46;46.22;97133.94;5023610;28;20202;-72
2023/05/06 08:23:15;;;;;;;5.47;3.20;;;;;;;20.17;47.22;97133.69;5024555;28;20212;-70
2023/05/06 08:25:42;;;;;;;4.30;3.40;;;;;;;20.32;47.53;97132.44;5023743;28;20202;-73
2023/05/06 08:28:10;;;;;;;5.43;3.67;;;;;;;20.45;46.66;97133.09;5025537;28;20257;-73
2023/05/06 08:30:37;;;;;;;9.93;3.90;;;;;;;20.95;45.70;97134.06;5024030;28;20220;-72
2023/05/06 08:33:04;;;;;;;3.80;3.40;;;;;;;20.60;46.77;97141.50;5023810;28;20281;-71
2023/05/06 08:35:31;;;;;;;13.63;4.37;;;;;;;20.40;47.36;97132.66;5036693;28;20210;-76
2023/05/06 08:37:58;;;;;;;5.53;3.40;;;;;;;20.36;46.55;97140.91;5024437;28;20194;-70
2023/05/06 08:40:28;;;;;;;5.10;3.30;;;;;;;19.88;47.98;97128.19;5025434;28;20233;-71
2023/05/06 08:42:57;;;;;;;4.27;3.10;;;;;;;20.24;48.45;97134.88;5023682;28;20303;-74
2023/05/06 08:45:25;;;;;;;4.27;3.23;;;;;;;20.11;47.98;97136.81;5044322;28;20204;-73
2023/05/06 08:47:56;;;;;;;9.60;3.70;;;;;;;19.94;48.71;97132.09;5066213;28;20194;-71
2023/05/06 08:50:24;;;;;;;4.60;3.03;;;;;;;19.76;49.63;97134.44;5067774;28;20227;-71
2023/05/06 08:52:53;;;;;;;6.00;3.53;;;;;;;19.58;49.37;97146.41;5067497;28;21125;-71
2023/05/06 08:55:23;;;;;;;4.30;3.20;;;;;;;19.63;49.99;97138.16;5049971;28;20200;-72
2023/05/06 08:57:52;;;;;;;4.23;3.17;;;;;;;19.99;49.53;97138.66;5069138;28;20328;-71
2023/05/06 09:00:19;;;;;;;6.00;3.60;;;;;;;20.49;47.61;97142.38;5066910;28;20228;-72
2023/05/06 09:02:46;;;;;;;4.67;2.93;;;;;;;19.81;47.83;97126.16;5069007;28;20191;-70
2023/05/06 09:05:15;;;;;;;4.73;3.10;;;;;;;19.75;48.54;97138.00;5069244;28;20206;-70
2023/05/06 09:07:42;;;;;;;4.50;3.40;;;;;;;19.86;48.47;97134.53;5068131;28;20189;-70
2023/05/06 09:10:13;;;;;;;3.93;3.17;;;;;;;19.95;48.48;97142.47;5069162;28;20199;-71
2023/05/06 09:12:40;;;;;;;6.93;3.77;;;;;;;20.31;46.48;97133.41;5067896;28;20192;-71
2023/05/06 09:15:09;;;;;;;7.33;4.27;;;;;;;19.97;48.37;97103.75;5067606;28;20248;-72
2023/05/06 09:17:37;;;;;;;10.33;5.27;;;;;;;20.25;48.14;97131.28;5068319;28;20239;-71
2023/05/06 09:20:07;;;;;;;10.03;5.00;;;;;;;19.94;48.45;97137.34;5068178;28;20227;-73
2023/05/06 09:22:38;;;;;;;9.10;5.70;;;;;;;19.76;48.61;97117.84;5068026;28;20192;-73
2023/05/06 09:25:08;;;;;;;14.47;8.70;;;;;;;19.78;48.40;97142.19;5067650;28;20302;-72
2023/05/06 09:27:35;;;;;;;7.27;4.67;;;;;;;19.43;49.13;97137.97;5066977;28;20199;-74
2023/05/06 09:30:08;;;;;;;6.30;4.20;;;;;;;19.65;49.33;97136.25;5066056;28;20641;-71
2023/05/06 09:32:40;;;;;;;5.73;3.50;;;;;;;19.68;48.32;97146.53;5067861;28;20731;-71
2023/05/06 09:35:09;;;;;;;4.50;3.90;;;;;;;19.48;48.72;97143.69;5066225;28;20241;-70
2023/05/06 09:37:37;;;;;;;6.73;3.70;;;;;;;19.63;48.78;97144.25;5067433;28;20195;-71
2023/05/06 09:40:05;;;;;;;4.17;3.77;;;;;;;19.56;48.42;97143.06;5050091;28;20234;-73
2023/05/06 09:42:33;;;;;;;5.87;4.13;;;;;;;19.54;48.68;97145.00;5049322;28;20207;-73
2023/05/06 09:45:03;;;;;;;6.40;3.83;;;;;;;19.45;48.98;97136.03;5066915;28;20283;-72
2023/05/06 09:47:33;;;;;;;6.37;3.97;;;;;;;19.33;49.74;97096.78;5065702;28;20307;-72
2023/05/06 09:50:03;;;;;;;6.27;3.53;;;;;;;19.19;50.18;97145.13;5082759;28;20213;-71
2023/05/06 09:52:32;;;;;;;7.60;3.27;;;;;;;19.48;50.20;97146.31;5067483;28;20207;-71
2023/05/06 09:55:01;;;;;;;5.57;3.60;;;;;;;19.73;49.90;97128.56;5067184;28;20189;-71
2023/05/06 09:57:32;;;;;;;6.80;3.87;;;;;;;19.98;49.83;97137.00;5068089;28;20614;-70
2023/05/06 10:00:01;;;;;;;8.53;3.70;;;;;;;20.01;49.59;97134.09;5066179;28;20223;-70
2023/05/06 10:02:44;;;;;;;8.50;3.80;;;;;;;20.25;48.25;97113.72;5067768;28;20218;-72
2023/05/06 10:05:12;;;;;;;6.33;3.50;;;;;;;19.88;48.26;97122.09;5067055;28;20219;-70
2023/05/06 10:07:41;;;;;;;5.87;3.70;;;;;;;19.66;48.75;97119.53;5065832;28;20204;-70
2023/05/06 10:10:10;;;;;;;6.63;3.90;;;;;;;19.94;47.63;97138.19;5067341;28;20226;-71
2023/05/06 10:12:38;;;;;;;5.60;3.60;;;;;;;20.13;47.47;97127.00;5065438;28;20194;-72
2023/05/06 10:15:06;;;;;;;4.33;3.57;;;;;;;20.00;47.06;97107.94;5066612;28;20283;-70
2023/05/06 10:17:33;;;;;;;6.77;3.93;;;;;;;19.85;47.94;97124.94;5066775;28;20258;-73
2023/05/06 10:20:03;;;;;;;9.97;3.47;;;;;;;19.71;47.81;97130.50;5067400;28;20314;-71
2023/05/06 10:22:48;;;;;;;4.80;3.00;;;;;;;19.95;47.62;97133.75;5065968;28;20188;-70
2023/05/06 10:25:37;;;;;;;7.83;4.03;;;;;;;20.22;47.41;97126.25;5067086;28;20741;-70
2023/05/06 10:28:06;;;;;;;4.03;3.53;;;;;;;20.01;48.19;97130.66;5067749;28;20224;-75
2023/05/06 10:30:40;;;;;;;4.43;3.23;;;;;;;20.10;46.21;97093.06;5066865;28;20245;-74
2023/05/06 10:33:09;;;;;;;4.37;3.20;;;;;;;19.97;45.50;97145.00;5067053;28;20203;-75
2023/05/06 10:35:43;;;;;;;5.23;3.17;;;;;;;19.98;45.35;97136.16;5065205;28;20192;-75
2023/05/06 10:38:25;;;;;;;4.63;3.00;;;;;;;20.14;46.18;97133.94;5066605;28;20261;-74
2023/05/06 10:40:53;;;;;;;5.57;3.07;;;;;;;20.14;46.50;97128.66;5066936;28;20251;-74
2023/05/06 10:43:32;;;;;;;4.83;3.30;;;;;;;20.44;47.01;97131.44;5066156;28;20200;-71
2023/05/06 10:46:07;;;;;;;3.03;2.73;;;;;;;20.00;44.86;97157.88;5065445;28;20193;-74
2023/05/06 10:48:37;;;;;;;7.40;3.40;;;;;;;20.38;45.53;97150.31;5066825;28;20283;-74
2023/05/06 10:51:16;;;;;;;5.27;3.03;;;;;;;20.52;45.38;97136.03;5047276;28;20618;-74
2023/05/06 10:54:06;;;;;;;7.57;3.50;;;;;;;19.99;46.40;97148.34;5047078;28;20272;-74
2023/05/06 10:56:38;;;;;;;4.80;3.47;;;;;;;20.06;46.63;97131.09;5046278;28;20254;-73
2023/05/06 10:59:10;;;;;;;4.80;3.50;;;;;;;20.24;46.31;97155.91;5045316;28;20189;-75
2023/05/06 11:01:39;;;;;;;4.60;3.40;;;;;;;20.31;45.14;97135.19;5045289;28;20186;-74
2023/05/06 11:04:12;;;;;;;9.30;3.83;;;;;;;20.15;47.02;97156.66;5046043;28;20202;-74
2023/05/06 11:06:46;;;;;;;7.63;3.80;;;;;;;20.64;46.47;97137.63;5045961;28;20217;-74
2023/05/06 11:09:31;;;;;;;3.73;3.10;;;;;;;20.39;47.07;97170.44;5044303;28;20622;-72
2023/05/06 11:12:38;;;;;;;4.60;3.30;;;;;;;20.02;47.25;97159.44;5046036;28;20211;-73
2023/05/06 11:15:42;;;;;;;4.47;3.33;;;;;;;19.74;47.34;97151.28;5044544;28;20286;-75
2023/05/06 11:18:28;;;;;;;7.03;3.67;;;;;;;20.18;47.34;97146.69;5044367;28;20201;-76
2023/05/06 11:21:01;;;;;;;4.80;4.23;;;;;;;20.39;48.04;97153.81;5044983;28;20224;-75
2023/05/06 11:23:45;;;;;;;8.50;3.90;;;;;;;20.21;49.31;97146.50;5046270;28;20444;-72
2023/05/06 11:26:13;;;;;;;5.70;3.20;;;;;;;19.79;46.99;97133.34;5045133;28;20690;-72
2023/05/06 11:28:46;;;;;;;5.00;3.27;;;;;;;19.93;47.19;97146.19;5044941;28;20233;-71
2023/05/06 11:31:15;;;;;;;3.90;3.50;;;;;;;19.85;47.26;97138.09;5044993;28;20196;-70
2023/05/06 11:33:47;;;;;;;5.87;3.47;;;;;;;20.05;46.51;97139.97;5046166;28;20580;-71
2023/05/06 11:36:16;;;;;;;6.07;3.40;;;;;;;19.94;46.87;97140.00;5045998;28;20189;-70
2023/05/06 11:38:45;;;;;;;4.33;2.70;;;;;;;19.59;47.84;97152.50;5045827;28;20196;-72
2023/05/06 11:41:13;;;;;;;8.03;4.77;;;;;;;19.84;48.05;97137.28;5046144;28;20227;-71
2023/05/06 11:43:45;;;;;;;8.10;3.87;;;;;;;19.99;46.63;97127.31;5045388;28;20762;-70
2023/05/06 11:46:14;;;;;;;4.73;3.50;;;;;;;19.97;46.85;97139.75;5046234;28;20274;-70